Time;durP1;ratioP1;P1;durP2;ratioP2;P2;SDS_P1;SDS_P2;PMS_P1;PMS_P2;Temp;Humidity;BMP_temperature;BMP_pressure;BME280_temperature;BME280_humidity;BME280_pressure;Samples;Min_cycle;Max_cycle;Signal;HPM_P1;HPM_P2
2022/10/09 00:01:37;;;;;;;;;;;;;;;;;;4345683;33;20026;-75
2022/10/09 00:04:04;;;;;;;;;;;;;;;;;;4346277;33;19943;-75
2022/10/09 00:06:31;;;;;;;;;;;;;;;;;;4346780;33;19958;-75
2022/10/09 00:08:57;;;;;;;;;;;;;;;;;;4345402;33;20565;-75
2022/10/09 00:11:22;;;;;;;;;;;;;;;;;;4346019;33;19954;-75
2022/10/09 00:13:47;;;;;;;;;;;;;;;;;;4345903;33;19980;-75
2022/10/09 00:16:12;;;;;;;;;;;;;;;;;;4346095;33;19958;-75
2022/10/09 00:18:38;;;;;;;;;;;;;;;;;;4345897;33;19999;-75
2022/10/09 00:21:03;;;;;;;;;;;;;;;;;;4345772;33;19943;-75
2022/10/09 00:23:28;;;;;;;;;;;;;;;;;;4346185;33;19939;-76
2022/10/09 00:25:55;;;;;;;;;;;;;;;;;;4346302;33;19943;-75
2022/10/09 00:28:21;;;;;;;;;;;;;;;;;;4345933;33;19939;-77
2022/10/09 00:30:46;;;;;;;;;;;;;;;;;;4346178;33;19958;-76
2022/10/09 00:33:11;;;;;;;;;;;;;;;;;;4345783;33;19934;-76
2022/10/09 00:35:36;;;;;;;;;;;;;;;;;;4346475;33;19931;-76
2022/10/09 00:38:01;;;;;;;;;;;;;;;;;;4364828;27;19976;-69
2022/10/09 00:40:26;;;;;;;;;;;;;;;;;;4337506;32;19946;-70
2022/10/09 00:42:52;;;;;;;;;;;;;;;;;;4360994;32;19973;-69
2022/10/09 00:45:17;;;;;;;;;;;;;;;;;;4360476;33;19939;-69
2022/10/09 00:47:42;;;;;;;;;;;;;;;;;;4360368;33;19978;-70
2022/10/09 00:50:07;;;;;;;;;;;;;;;;;;4362353;33;19957;-70
2022/10/09 00:52:32;;;;;;;;;;;;;;;;;;4361297;33;19938;-70
2022/10/09 00:54:57;;;;;;;;;;;;;;;;;;4360503;33;19972;-70
2022/10/09 00:57:22;;;;;;;;;;;;;;;;;;4349347;32;19946;-71
2022/10/09 00:59:47;;;;;;;;;;;;;;;;;;4351081;32;19990;-69
2022/10/09 01:02:12;;;;;;;;;;;;;;;;;;4348728;33;19977;-69
2022/10/09 01:04:37;;;;;;;;;;;;;;;;;;4362618;33;19942;-70
2022/10/09 01:07:03;;;;;;;;;;;;;;;;;;4363206;32;19943;-70
2022/10/09 01:09:28;;;;;;;;;;;;;;;;;;4362688;32;19942;-70
2022/10/09 01:11:53;;;;;;;;;;;;;;;;;;4362815;32;20008;-70
2022/10/09 01:14:18;;;;;;;;;;;;;;;;;;4364057;32;20058;-70
2022/10/09 01:16:43;;;;;;;;;;;;;;;;;;4363808;32;20306;-70
2022/10/09 01:19:08;;;;;;;;;;;;;;;;;;4363560;32;19946;-70
2022/10/09 01:21:33;;;;;;;;;;;;;;;;;;4349413;33;20042;-70
2022/10/09 01:23:58;;;;;;;;;;;;;;;;;;4362498;32;19930;-70
2022/10/09 01:26:23;;;;;;;;;;;;;;;;;;4363111;33;19993;-70
2022/10/09 01:28:49;;;;;;;;;;;;;;;;;;4362789;33;20301;-70
2022/10/09 01:31:14;;;;;;;;;;;;;;;;;;4362545;33;19980;-70
2022/10/09 01:33:39;;;;;;;;;;;;;;;;;;4362799;33;19973;-70
2022/10/09 01:36:04;;;;;;;;;;;;;;;;;;4363076;33;20335;-70
2022/10/09 01:38:29;;;;;;;;;;;;;;;;;;4362910;32;19939;-69
2022/10/09 01:40:54;;;;;;;;;;;;;;;;;;4363545;33;19942;-69
2022/10/09 01:43:19;;;;;;;;;;;;;;;;;;4366274;32;19949;-69
2022/10/09 01:45:44;;;;;;;;;;;;;;;;;;4360503;33;19949;-70
2022/10/09 01:48:09;;;;;;;;;;;;;;;;;;4350017;33;19963;-71
2022/10/09 01:50:34;;;;;;;;;;;;;;;;;;4348488;33;20386;-70
2022/10/09 01:53:00;;;;;;;;;;;;;;;;;;4348069;33;19943;-70
2022/10/09 01:55:25;;;;;;;;;;;;;;;;;;4348269;33;19934;-70
2022/10/09 01:57:50;;;;;;;;;;;;;;;;;;4348274;33;19938;-72
2022/10/09 02:00:15;;;;;;;;;;;;;;;;;;4348398;33;19951;-70
2022/10/09 02:02:41;;;;;;;;;;;;;;;;;;4335116;33;20329;-71
2022/10/09 02:05:06;;;;;;;;;;;;;;;;;;4339378;33;19954;-71
2022/10/09 02:07:31;;;;;;;;;;;;;;;;;;4350197;33;19986;-71
2022/10/09 02:09:56;;;;;;;;;;;;;;;;;;4362700;32;19977;-70
2022/10/09 02:12:21;;;;;;;;;;;;;;;;;;4362615;33;20288;-70
2022/10/09 02:14:46;;;;;;;;;;;;;;;;;;4362374;32;19935;-70
2022/10/09 02:17:11;;;;;;;;;;;;;;;;;;4334535;33;19939;-71
2022/10/09 02:19:37;;;;;;;;;;;;;;;;;;4348398;33;20029;-70
2022/10/09 02:22:02;;;;;;;;;;;;;;;;;;4347680;33;19949;-70
2022/10/09 02:24:27;;;;;;;;;;;;;;;;;;4347760;33;19939;-70
2022/10/09 02:26:52;;;;;;;;;;;;;;;;;;4333707;33;19985;-70
2022/10/09 02:29:17;;;;;;;;;;;;;;;;;;4346959;33;19951;-70
2022/10/09 02:31:42;;;;;;;;;;;;;;;;;;4347970;33;19946;-70
2022/10/09 02:34:07;;;;;;;;;;;;;;;;;;4339352;33;19946;-70
2022/10/09 02:36:32;;;;;;;;;;;;;;;;;;4349489;33;19946;-70
2022/10/09 02:38:58;;;;;;;;;;;;;;;;;;4348749;33;19938;-70
2022/10/09 02:41:23;;;;;;;;;;;;;;;;;;4362577;32;19980;-70
2022/10/09 02:43:48;;;;;;;;;;;;;;;;;;4344203;33;19950;-68
2022/10/09 02:46:13;;;;;;;;;;;;;;;;;;4343850;33;19970;-70
2022/10/09 02:48:38;;;;;;;;;;;;;;;;;;4354785;33;19935;-71
2022/10/09 02:51:03;;;;;;;;;;;;;;;;;;4349394;33;19982;-71
2022/10/09 02:53:28;;;;;;;;;;;;;;;;;;4335599;33;20311;-71
2022/10/09 02:55:53;;;;;;;;;;;;;;;;;;4346750;33;19974;-71
2022/10/09 02:58:18;;;;;;;;;;;;;;;;;;4346823;33;20022;-71
2022/10/09 03:00:43;;;;;;;;;;;;;;;;;;4332923;33;19970;-71
2022/10/09 03:03:09;;;;;;;;;;;;;;;;;;4336954;32;19953;-71
2022/10/09 03:05:34;;;;;;;;;;;;;;;;;;4357572;32;19949;-71
2022/10/09 03:07:59;;;;;;;;;;;;;;;;;;4346755;33;20318;-71
2022/10/09 03:10:24;;;;;;;;;;;;;;;;;;4333655;33;19943;-71
2022/10/09 03:12:49;;;;;;;;;;;;;;;;;;4346490;33;19986;-69
2022/10/09 03:15:14;;;;;;;;;;;;;;;;;;4348621;33;19943;-71
2022/10/09 03:17:39;;;;;;;;;;;;;;;;;;4346206;33;19947;-70
2022/10/09 03:20:05;;;;;;;;;;;;;;;;;;4345577;33;20003;-70
2022/10/09 03:22:30;;;;;;;;;;;;;;;;;;4334230;33;19935;-71
2022/10/09 03:24:55;;;;;;;;;;;;;;;;;;4346508;33;19946;-70
2022/10/09 03:27:20;;;;;;;;;;;;;;;;;;4348039;33;19939;-70
2022/10/09 03:29:45;;;;;;;;;;;;;;;;;;4347514;33;19935;-70
2022/10/09 03:32:11;;;;;;;;;;;;;;;;;;4347037;33;19945;-71
2022/10/09 03:34:36;;;;;;;;;;;;;;;;;;4344053;33;19942;-70
2022/10/09 03:37:01;;;;;;;;;;;;;;;;;;4361460;33;20022;-70
2022/10/09 03:39:26;;;;;;;;;;;;;;;;;;4347703;33;19965;-70
2022/10/09 03:41:51;;;;;;;;;;;;;;;;;;4348826;32;20009;-70
2022/10/09 03:44:16;;;;;;;;;;;;;;;;;;4347804;33;19943;-71
2022/10/09 03:46:41;;;;;;;;;;;;;;;;;;4348371;33;19935;-71
2022/10/09 03:49:06;;;;;;;;;;;;;;;;;;4347287;33;19977;-71
2022/10/09 03:51:32;;;;;;;;;;;;;;;;;;4337638;33;19931;-70
2022/10/09 03:53:57;;;;;;;;;;;;;;;;;;4350001;33;19972;-71
2022/10/09 03:56:22;;;;;;;;;;;;;;;;;;4352873;32;19942;-70
2022/10/09 03:58:47;;;;;;;;;;;;;;;;;;4346385;33;19972;-72
2022/10/09 04:01:12;;;;;;;;;;;;;;;;;;4344055;33;20321;-71
2022/10/09 04:03:37;;;;;;;;;;;;;;;;;;4334719;33;19952;-70
2022/10/09 04:06:02;;;;;;;;;;;;;;;;;;4345803;33;19934;-70
2022/10/09 04:08:27;;;;;;;;;;;;;;;;;;4346000;33;19935;-70
2022/10/09 04:10:52;;;;;;;;;;;;;;;;;;4347290;33;19958;-70
2022/10/09 04:13:18;;;;;;;;;;;;;;;;;;4332582;33;19939;-71
2022/10/09 04:15:43;;;;;;;;;;;;;;;;;;4347462;33;19966;-70
2022/10/09 04:18:08;;;;;;;;;;;;;;;;;;4345091;33;19951;-71
2022/10/09 04:20:33;;;;;;;;;;;;;;;;;;4345436;33;20016;-70
2022/10/09 04:22:58;;;;;;;;;;;;;;;;;;4357219;32;19946;-70
2022/10/09 04:25:23;;;;;;;;;;;;;;;;;;4331924;33;19970;-70
2022/10/09 04:27:48;;;;;;;;;;;;;;;;;;4346876;33;20262;-69
2022/10/09 04:30:13;;;;;;;;;;;;;;;;;;4347417;33;19970;-70
2022/10/09 04:32:38;;;;;;;;;;;;;;;;;;4344697;33;19947;-70
2022/10/09 04:35:04;;;;;;;;;;;;;;;;;;4346301;33;20197;-71
2022/10/09 04:37:29;;;;;;;;;;;;;;;;;;4332807;33;20325;-71
2022/10/09 04:39:54;;;;;;;;;;;;;;;;;;4333611;33;19994;-71
2022/10/09 04:42:19;;;;;;;;;;;;;;;;;;4345703;33;19973;-70
2022/10/09 04:44:44;;;;;;;;;;;;;;;;;;4346575;33;19966;-70
2022/10/09 04:47:09;;;;;;;;;;;;;;;;;;4333191;33;19961;-71
2022/10/09 04:49:34;;;;;;;;;;;;;;;;;;4347908;33;19942;-70
2022/10/09 04:51:59;;;;;;;;;;;;;;;;;;4361146;33;20269;-69
2022/10/09 04:54:24;;;;;;;;;;;;;;;;;;4347255;33;19939;-72
2022/10/09 04:56:49;;;;;;;;;;;;;;;;;;4346327;33;19963;-70
2022/10/09 04:59:14;;;;;;;;;;;;;;;;;;4346881;33;19930;-71
2022/10/09 05:01:40;;;;;;;;;;;;;;;;;;4331296;33;19938;-71
2022/10/09 05:04:05;;;;;;;;;;;;;;;;;;4331823;33;19977;-71
2022/10/09 05:06:30;;;;;;;;;;;;;;;;;;4346284;33;20322;-71
2022/10/09 05:08:55;;;;;;;;;;;;;;;;;;4345487;33;19934;-70
2022/10/09 05:11:23;;;;;;;;;;;;;;;;;;4346973;33;19953;-70
2022/10/09 05:13:48;;;;;;;;;;;;;;;;;;4331430;33;19934;-71
2022/10/09 05:16:13;;;;;;;;;;;;;;;;;;4334971;33;20103;-71
2022/10/09 05:18:38;;;;;;;;;;;;;;;;;;4346957;33;19959;-71
2022/10/09 05:21:03;;;;;;;;;;;;;;;;;;4348972;33;19947;-71
2022/10/09 05:23:28;;;;;;;;;;;;;;;;;;4346991;33;20304;-71
2022/10/09 05:25:53;;;;;;;;;;;;;;;;;;4332727;33;19993;-71
2022/10/09 05:28:18;;;;;;;;;;;;;;;;;;4346676;33;19939;-71
2022/10/09 05:30:44;;;;;;;;;;;;;;;;;;4352591;33;20002;-71
2022/10/09 05:33:09;;;;;;;;;;;;;;;;;;4361673;33;20281;-70
2022/10/09 05:35:34;;;;;;;;;;;;;;;;;;4370481;33;19981;-71
2022/10/09 05:37:59;;;;;;;;;;;;;;;;;;4359769;33;19934;-70
2022/10/09 05:40:24;;;;;;;;;;;;;;;;;;4354496;33;19989;-70
2022/10/09 05:42:49;;;;;;;;;;;;;;;;;;4346053;33;20335;-69
2022/10/09 05:45:14;;;;;;;;;;;;;;;;;;4336121;33;19990;-70
2022/10/09 05:47:40;;;;;;;;;;;;;;;;;;4349717;33;19969;-70
2022/10/09 05:50:05;;;;;;;;;;;;;;;;;;4356773;32;19981;-70
2022/10/09 05:52:30;;;;;;;;;;;;;;;;;;4362810;32;19950;-71
2022/10/09 05:54:56;;;;;;;;;;;;;;;;;;4346084;33;19957;-71
2022/10/09 05:57:21;;;;;;;;;;;;;;;;;;4347574;33;19943;-72
2022/10/09 05:59:46;;;;;;;;;;;;;;;;;;4347876;33;19977;-71
2022/10/09 06:02:11;;;;;;;;;;;;;;;;;;4348789;33;19978;-71
2022/10/09 06:04:36;;;;;;;;;;;;;;;;;;4349020;33;19939;-70
2022/10/09 06:07:01;;;;;;;;;;;;;;;;;;4351367;33;19935;-71
2022/10/09 06:09:26;;;;;;;;;;;;;;;;;;4353788;33;19948;-71
2022/10/09 06:11:52;;;;;;;;;;;;;;;;;;4363872;32;19990;-71
2022/10/09 06:14:17;;;;;;;;;;;;;;;;;;4363910;32;19949;-70
2022/10/09 06:16:42;;;;;;;;;;;;;;;;;;4362785;32;19946;-70
2022/10/09 06:19:07;;;;;;;;;;;;;;;;;;4338471;33;19957;-72
2022/10/09 06:21:32;;;;;;;;;;;;;;;;;;4348243;33;20327;-70
2022/10/09 06:23:57;;;;;;;;;;;;;;;;;;4348898;33;19950;-70
2022/10/09 06:26:22;;;;;;;;;;;;;;;;;;4348160;33;19981;-71
2022/10/09 06:28:47;;;;;;;;;;;;;;;;;;4364182;32;19950;-71
2022/10/09 06:31:13;;;;;;;;;;;;;;;;;;4362796;32;19946;-70
2022/10/09 06:33:38;;;;;;;;;;;;;;;;;;4364001;32;19942;-69
2022/10/09 06:36:03;;;;;;;;;;;;;;;;;;4362853;32;19957;-70
2022/10/09 06:38:28;;;;;;;;;;;;;;;;;;4361528;32;19946;-70
2022/10/09 06:40:53;;;;;;;;;;;;;;;;;;4364121;32;20029;-70
2022/10/09 06:43:18;;;;;;;;;;;;;;;;;;4363794;32;20313;-70
2022/10/09 06:45:43;;;;;;;;;;;;;;;;;;4363850;32;20000;-70
2022/10/09 06:48:08;;;;;;;;;;;;;;;;;;4359799;32;19935;-70
2022/10/09 06:50:33;;;;;;;;;;;;;;;;;;4348696;32;19947;-70
2022/10/09 06:52:58;;;;;;;;;;;;;;;;;;4348817;33;19943;-70
2022/10/09 06:55:24;;;;;;;;;;;;;;;;;;4347233;33;20375;-71
2022/10/09 06:57:49;;;;;;;;;;;;;;;;;;4350969;33;20002;-69
2022/10/09 07:00:14;;;;;;;;;;;;;;;;;;4362638;33;20006;-71
2022/10/09 07:02:41;;;;;;;;;;;;;;;;;;4352686;33;19981;-69
2022/10/09 07:05:06;;;;;;;;;;;;;;;;;;4335869;33;19987;-70
2022/10/09 07:07:31;;;;;;;;;;;;;;;;;;4351797;33;19963;-70
2022/10/09 07:09:56;;;;;;;;;;;;;;;;;;4352047;33;19934;-70
2022/10/09 07:12:21;;;;;;;;;;;;;;;;;;4355887;33;19951;-69
2022/10/09 07:14:46;;;;;;;;;;;;;;;;;;4354091;33;19938;-69
2022/10/09 07:17:11;;;;;;;;;;;;;;;;;;4353216;33;19935;-69
2022/10/09 07:19:36;;;;;;;;;;;;;;;;;;4333881;33;19951;-71
2022/10/09 07:22:02;;;;;;;;;;;;;;;;;;4359641;32;19934;-70
2022/10/09 07:24:27;;;;;;;;;;;;;;;;;;4360616;32;19961;-70
2022/10/09 07:26:55;;;;;;;;;;;;;;;;;;4342170;33;19954;-70
2022/10/09 07:29:20;;;;;;;;;;;;;;;;;;4358034;33;19952;-70
2022/10/09 07:31:45;;;;;;;;;;;;;;;;;;4358453;33;19947;-69
2022/10/09 07:34:10;;;;;;;;;;;;;;;;;;4354901;33;19994;-70
2022/10/09 07:36:36;;;;;;;;;;;;;;;;;;4354724;32;19934;-69
2022/10/09 07:39:01;;;;;;;;;;;;;;;;;;4354269;32;20363;-70
2022/10/09 07:41:26;;;;;;;;;;;;;;;;;;4346419;32;19943;-69
2022/10/09 07:43:51;;;;;;;;;;;;;;;;;;4347228;32;19947;-70
2022/10/09 07:46:16;;;;;;;;;;;;;;;;;;4350576;33;20125;-69
2022/10/09 07:48:41;;;;;;;;;;;;;;;;;;4356293;32;19939;-70
2022/10/09 07:51:07;;;;;;;;;;;;;;;;;;4346609;33;19944;-69
2022/10/09 07:53:32;;;;;;;;;;;;;;;;;;4362338;32;19961;-70
2022/10/09 07:55:57;;;;;;;;;;;;;;;;;;4347777;33;20292;-70
2022/10/09 07:58:22;;;;;;;;;;;;;;;;;;4361740;32;19976;-71
2022/10/09 08:00:47;;;;;;;;;;;;;;;;;;4350370;32;19953;-72
2022/10/09 08:03:12;;;;;;;;;;;;;;;;;;4347316;33;19947;-71
2022/10/09 08:05:37;;;;;;;;;;;;;;;;;;4345750;33;19994;-71
2022/10/09 08:08:02;;;;;;;;;;;;;;;;;;4347216;33;19977;-70
2022/10/09 08:10:27;;;;;;;;;;;;;;;;;;4350218;32;19943;-70
2022/10/09 08:12:52;;;;;;;;;;;;;;;;;;4351636;32;19943;-71
2022/10/09 08:15:18;;;;;;;;;;;;;;;;;;4352918;33;19957;-71
2022/10/09 08:17:43;;;;;;;;;;;;;;;;;;4349082;33;20013;-72
2022/10/09 08:20:08;;;;;;;;;;;;;;;;;;4347267;33;19973;-71
2022/10/09 08:22:33;;;;;;;;;;;;;;;;;;4348736;33;19949;-71
2022/10/09 08:24:58;;;;;;;;;;;;;;;;;;4342145;33;19937;-71
2022/10/09 08:27:23;;;;;;;;;;;;;;;;;;4347518;32;20357;-70
2022/10/09 08:29:48;;;;;;;;;;;;;;;;;;4345408;33;20297;-70
2022/10/09 08:32:13;;;;;;;;;;;;;;;;;;4331437;33;19988;-72
2022/10/09 08:34:38;;;;;;;;;;;;;;;;;;4345962;33;20285;-70
2022/10/09 08:37:03;;;;;;;;;;;;;;;;;;4345175;33;19943;-71
2022/10/09 08:39:29;;;;;;;;;;;;;;;;;;4344980;33;19952;-72
2022/10/09 08:41:56;;;;;;;;;;;;;;;;;;4346670;33;19973;-70
2022/10/09 08:44:21;;;;;;;;;;;;;;;;;;4347112;33;19942;-71
2022/10/09 08:46:46;;;;;;;;;;;;;;;;;;4331610;33;19939;-70
2022/10/09 08:49:11;;;;;;;;;;;;;;;;;;4332840;33;19943;-71
2022/10/09 08:51:36;;;;;;;;;;;;;;;;;;4336685;33;19947;-71
2022/10/09 08:54:01;;;;;;;;;;;;;;;;;;4330830;33;19935;-72
2022/10/09 08:56:27;;;;;;;;;;;;;;;;;;4332458;33;20070;-71
2022/10/09 08:58:52;;;;;;;;;;;;;;;;;;4340155;33;19969;-71
2022/10/09 09:01:17;;;;;;;;;;;;;;;;;;4331263;33;19953;-71
2022/10/09 09:03:42;;;;;;;;;;;;;;;;;;4345286;33;19938;-71
2022/10/09 09:06:07;;;;;;;;;;;;;;;;;;4331646;33;19939;-72
2022/10/09 09:08:32;;;;;;;;;;;;;;;;;;4347706;33;20001;-70
2022/10/09 09:10:57;;;;;;;;;;;;;;;;;;4335701;33;19994;-71
2022/10/09 09:13:23;;;;;;;;;;;;;;;;;;4346488;33;19939;-70
2022/10/09 09:15:48;;;;;;;;;;;;;;;;;;4344655;33;19953;-71
2022/10/09 09:18:13;;;;;;;;;;;;;;;;;;4345851;33;19969;-71
2022/10/09 09:20:38;;;;;;;;;;;;;;;;;;4347711;33;20300;-71
2022/10/09 09:23:03;;;;;;;;;;;;;;;;;;4349252;33;19986;-71
2022/10/09 09:25:28;;;;;;;;;;;;;;;;;;4347545;33;19943;-70
2022/10/09 09:27:53;;;;;;;;;;;;;;;;;;4348761;33;19935;-70
2022/10/09 09:30:19;;;;;;;;;;;;;;;;;;4334748;33;19990;-70
2022/10/09 09:32:44;;;;;;;;;;;;;;;;;;4334534;33;19980;-70
2022/10/09 09:35:11;;;;;;;;;;;;;;;;;;4348488;33;19947;-71
2022/10/09 09:37:36;;;;;;;;;;;;;;;;;;4333177;33;19938;-71
2022/10/09 09:40:02;;;;;;;;;;;;;;;;;;4362450;32;19957;-70
2022/10/09 09:42:27;;;;;;;;;;;;;;;;;;4352765;32;19981;-69
2022/10/09 09:44:52;;;;;;;;;;;;;;;;;;4357632;33;19937;-70
2022/10/09 09:47:17;;;;;;;;;;;;;;;;;;4360926;32;19962;-70
2022/10/09 09:49:42;;;;;;;;;;;;;;;;;;4347230;33;19955;-70
2022/10/09 09:52:08;;;;;;;;;;;;;;;;;;4348046;33;20003;-70
2022/10/09 09:54:33;;;;;;;;;;;;;;;;;;4347750;33;20026;-70
2022/10/09 09:56:58;;;;;;;;;;;;;;;;;;4346958;33;19949;-70
2022/10/09 09:59:23;;;;;;;;;;;;;;;;;;4347442;33;19974;-72
2022/10/09 10:01:48;;;;;;;;;;;;;;;;;;4347961;33;19947;-71
2022/10/09 10:04:13;;;;;;;;;;;;;;;;;;4333606;33;19938;-71
2022/10/09 10:06:38;;;;;;;;;;;;;;;;;;4347210;33;19996;-71
2022/10/09 10:09:03;;;;;;;;;;;;;;;;;;4347457;33;20412;-71
2022/10/09 10:11:29;;;;;;;;;;;;;;;;;;4347862;33;19943;-71
2022/10/09 10:13:54;;;;;;;;;;;;;;;;;;4347274;33;19939;-72
2022/10/09 10:16:19;;;;;;;;;;;;;;;;;;4347087;33;19934;-71
2022/10/09 10:18:44;;;;;;;;;;;;;;;;;;4347623;33;20325;-69
2022/10/09 10:21:09;;;;;;;;;;;;;;;;;;4354086;33;19958;-69
2022/10/09 10:23:34;;;;;;;;;;;;;;;;;;4350020;33;20020;-70
2022/10/09 10:25:59;;;;;;;;;;;;;;;;;;4346543;33;20321;-71
2022/10/09 10:28:24;;;;;;;;;;;;;;;;;;4335444;33;19970;-69
2022/10/09 10:30:49;;;;;;;;;;;;;;;;;;4347569;33;19939;-71
2022/10/09 10:33:15;;;;;;;;;;;;;;;;;;4334780;33;20005;-71
2022/10/09 10:35:40;;;;;;;;;;;;;;;;;;4333524;33;19966;-72
2022/10/09 10:38:05;;;;;;;;;;;;;;;;;;4358156;33;19996;-71
2022/10/09 10:40:30;;;;;;;;;;;;;;;;;;4347909;33;20042;-72
2022/10/09 10:42:55;;;;;;;;;;;;;;;;;;4347242;33;19953;-72
2022/10/09 10:45:21;;;;;;;;;;;;;;;;;;4336048;33;19953;-71
2022/10/09 10:47:46;;;;;;;;;;;;;;;;;;4349700;33;19935;-72
2022/10/09 10:50:11;;;;;;;;;;;;;;;;;;4333862;33;20022;-71
2022/10/09 10:52:36;;;;;;;;;;;;;;;;;;4336265;33;19953;-71
2022/10/09 10:55:01;;;;;;;;;;;;;;;;;;4361629;33;19929;-71
2022/10/09 10:57:26;;;;;;;;;;;;;;;;;;4362368;33;19935;-71
2022/10/09 10:59:51;;;;;;;;;;;;;;;;;;4349579;33;19950;-71
2022/10/09 11:02:16;;;;;;;;;;;;;;;;;;4362276;33;19923;-71
2022/10/09 11:04:41;;;;;;;;;;;;;;;;;;4349494;33;19951;-71
2022/10/09 11:07:06;;;;;;;;;;;;;;;;;;4363718;32;19943;-72
2022/10/09 11:09:32;;;;;;;;;;;;;;;;;;4363282;33;19935;-71
2022/10/09 11:11:57;;;;;;;;;;;;;;;;;;4351386;33;19973;-72
2022/10/09 11:14:22;;;;;;;;;;;;;;;;;;4362129;33;19927;-71
2022/10/09 11:16:47;;;;;;;;;;;;;;;;;;4346661;33;19935;-72
2022/10/09 11:19:12;;;;;;;;;;;;;;;;;;4364131;33;19935;-72
2022/10/09 11:21:37;;;;;;;;;;;;;;;;;;4362980;33;19924;-72
2022/10/09 11:24:02;;;;;;;;;;;;;;;;;;4362760;32;19977;-73
2022/10/09 11:26:27;;;;;;;;;;;;;;;;;;4362662;32;19915;-72
2022/10/09 11:28:52;;;;;;;;;;;;;;;;;;4361939;33;19919;-72
2022/10/09 11:31:18;;;;;;;;;;;;;;;;;;4362019;33;19984;-72
2022/10/09 11:33:43;;;;;;;;;;;;;;;;;;4349963;33;19947;-72
2022/10/09 11:36:08;;;;;;;;;;;;;;;;;;4363678;33;19946;-71
2022/10/09 11:38:33;;;;;;;;;;;;;;;;;;4362073;32;19943;-70
2022/10/09 11:40:59;;;;;;;;;;;;;;;;;;4353014;33;19939;-70
2022/10/09 11:43:24;;;;;;;;;;;;;;;;;;4359471;33;19939;-70
2022/10/09 11:45:49;;;;;;;;;;;;;;;;;;4358976;33;19958;-69
2022/10/09 11:48:14;;;;;;;;;;;;;;;;;;4361754;33;19985;-72
2022/10/09 11:50:39;;;;;;;;;;;;;;;;;;4354677;33;19943;-69
2022/10/09 11:53:04;;;;;;;;;;;;;;;;;;4357126;32;19939;-71
2022/10/09 11:55:29;;;;;;;;;;;;;;;;;;4354638;33;19934;-70
2022/10/09 11:57:54;;;;;;;;;;;;;;;;;;4351934;33;20004;-70
2022/10/09 12:02:35;;;;;;;10.80;3.78;;;;;;;;;;4483578;31;20054;-70
2022/10/09 12:05:13;;;;;;;8.93;3.20;;;;;;;;;;4482654;32;20052;-69
2022/10/09 12:07:39;;;;;;;6.75;3.22;;;;;;;;;;4469923;32;20061;-68
2022/10/09 12:10:06;;;;;;;9.68;3.55;;;;;;;;;;4469362;32;20044;-70
2022/10/09 12:12:32;;;;;;;8.40;3.28;;;;;;;;;;4467333;32;20330;-70
2022/10/09 12:15:08;;;;;;;11.18;3.60;;;;;;;;;;4483113;32;20029;-68
2022/10/09 12:17:33;;;;;;;8.80;3.72;;;;;;;;;;4471383;32;20092;-69
2022/10/09 12:20:15;;;;;;;12.82;3.72;;;;;;;;;;4475482;32;20024;-68
2022/10/09 12:22:42;;;;;;;10.07;3.55;;;;;;;;;;4466912;32;20045;-70
2022/10/09 12:25:13;;;;;;;9.52;3.65;;;;;;;;;;4471400;32;20037;-69
2022/10/09 12:27:39;;;;;;;9.88;3.20;;;;;;;;;;4477939;32;20025;-68
2022/10/09 12:30:14;;;;;;;11.15;3.62;;;;;;;;;;4471410;32;20447;-68
2022/10/09 12:32:42;;;;;;;8.75;3.08;;;;;;;;;;4467974;32;20076;-69
2022/10/09 12:35:30;;;;;;;7.20;3.33;;;;;;;;;;4470703;32;20021;-69
2022/10/09 12:37:55;;;;;;;8.82;2.87;;;;;;;;;;4457698;32;20097;-69
2022/10/09 12:40:24;;;;;;;8.57;2.80;;;;;;;;;;4465009;32;20017;-69
2022/10/09 12:42:51;;;;;;;6.82;2.62;;;;;;;;;;4465678;32;20029;-70
2022/10/09 12:45:28;;;;;;;13.82;2.97;;;;;;;;;;4403352;32;20053;-69
2022/10/09 12:47:54;;;;;;;10.30;2.80;;;;;;;;;;4406216;32;20022;-70
2022/10/09 12:50:32;;;;;;;7.55;2.20;;;;;;;;;;4417370;32;20052;-70
2022/10/09 12:52:59;;;;;;;4.68;2.35;;;;;;;;;;4416642;32;20060;-69
2022/10/09 12:55:32;;;;;;;6.32;2.58;;;;;;;;;;4416657;32;20111;-69
2022/10/09 12:58:02;;;;;;;5.90;2.67;;;;;;;;;;4403052;32;20340;-69
2022/10/09 13:00:27;;;;;;;9.35;3.28;;;;;;;;;;4404917;32;20022;-70
2022/10/09 13:02:52;;;;;;;7.87;2.78;;;;;;;;;;4412229;32;20060;-69
2022/10/09 13:05:18;;;;;;;5.60;2.40;;;;;;;;;;4418288;32;20095;-69
2022/10/09 13:07:49;;;;;;;6.25;2.30;;;;;;;;;;4415033;32;20053;-69
2022/10/09 13:10:16;;;;;;;6.50;2.45;;;;;;;;;;4416535;32;20033;-69
2022/10/09 13:12:46;;;;;;;7.65;2.83;;;;;;;;;;4413491;32;20083;-69
2022/10/09 13:15:30;;;;;;;5.70;2.40;;;;;;;;;;4406809;32;20049;-69
2022/10/09 13:17:56;;;;;;;9.38;2.97;;;;;;;;;;4407820;32;20110;-69
2022/10/09 13:20:23;;;;;;;7.30;2.72;;;;;;;;;;4407956;32;20022;-69
2022/10/09 13:22:55;;;;;;;7.40;2.62;;;;;;;;;;4408068;32;20137;-69
2022/10/09 13:25:21;;;;;;;8.77;2.30;;;;;;;;;;4406322;32;20034;-69
2022/10/09 13:27:47;;;;;;;9.88;3.17;;;;;;;;;;4408058;32;20148;-69
2022/10/09 13:30:12;;;;;;;6.97;2.55;;;;;;;;;;4407699;32;20026;-70
2022/10/09 13:32:37;;;;;;;4.95;2.55;;;;;;;;;;4406686;32;20127;-69
2022/10/09 13:35:02;;;;;;;7.20;2.30;;;;;;;;;;4405775;32;20408;-69
2022/10/09 13:37:27;;;;;;;8.70;2.75;;;;;;;;;;4406057;32;20165;-69
2022/10/09 13:39:53;;;;;;;6.28;2.05;;;;;;;;;;4401447;32;20022;-69
2022/10/09 13:42:19;;;;;;;9.88;2.62;;;;;;;;;;4399189;32;20082;-69
2022/10/09 13:44:44;;;;;;;6.53;2.53;;;;;;;;;;4395664;32;20062;-69
2022/10/09 13:47:10;;;;;;;7.22;2.70;;;;;;;;;;4397577;32;20113;-69
2022/10/09 13:49:35;;;;;;;9.40;3.20;;;;;;;;;;4403143;32;20045;-69
2022/10/09 13:52:00;;;;;;;7.82;2.80;;;;;;;;;;4404555;32;20039;-68
2022/10/09 13:54:26;;;;;;;8.10;2.40;;;;;;;;;;4406068;32;20027;-69
2022/10/09 13:56:51;;;;;;;7.20;2.40;;;;;;;;;;4403757;32;20042;-69
2022/10/09 13:59:16;;;;;;;8.55;2.58;;;;;;;;;;4405196;32;20089;-70
2022/10/09 14:01:41;;;;;;;5.37;2.55;;;;;;;;;;4401795;32;20046;-68
2022/10/09 14:04:06;;;;;;;6.78;2.37;;;;;;;;;;4400565;32;20018;-68
2022/10/09 14:06:35;;;;;;;6.30;2.17;;;;;;;;;;4404860;32;20443;-68
2022/10/09 14:09:01;;;;;;;9.55;2.25;;;;;;;;;;4403793;32;20396;-69
2022/10/09 14:11:26;;;;;;;9.77;2.75;;;;;;;;;;4404627;32;20077;-69
2022/10/09 14:13:51;;;;;;;8.37;2.90;;;;;;;;;;4403879;32;20056;-69
2022/10/09 14:16:16;;;;;;;7.25;2.45;;;;;;;;;;4404659;32;20118;-69
2022/10/09 14:18:42;;;;;;;5.70;2.22;;;;;;;;;;4405236;32;20071;-70
2022/10/09 14:21:10;;;;;;;4.57;2.10;;;;;;;;;;4406015;32;20102;-70
2022/10/09 14:23:35;;;;;;;7.97;2.53;;;;;;;;;;4401516;32;20123;-68
2022/10/09 14:26:02;;;;;;;8.70;2.60;;;;;;;;;;4404971;32;20384;-68
2022/10/09 14:28:28;;;;;;;8.45;3.35;;;;;;;;;;4406427;32;20237;-69
2022/10/09 14:30:53;;;;;;;6.90;2.30;;;;;;;;;;4405606;32;20039;-70
2022/10/09 14:33:18;;;;;;;6.77;2.87;;;;;;;;;;4405565;32;20483;-69
2022/10/09 14:35:43;;;;;;;7.20;2.70;;;;;;;;;;4401324;32;20181;-69
2022/10/09 14:38:08;;;;;;;5.18;2.17;;;;;;;;;;4400557;32;20126;-69
2022/10/09 14:40:36;;;;;;;7.55;2.50;;;;;;;;;;4396580;32;20143;-69
2022/10/09 14:43:01;;;;;;;5.43;2.85;;;;;;;;;;4396801;32;20057;-69
2022/10/09 14:45:27;;;;;;;9.03;2.93;;;;;;;;;;4395384;32;20062;-69
2022/10/09 14:47:53;;;;;;;7.15;2.53;;;;;;;;;;4396418;32;20239;-68
2022/10/09 14:50:18;;;;;;;6.03;2.83;;;;;;;;;;4397229;32;20475;-68
2022/10/09 14:52:43;;;;;;;8.43;2.62;;;;;;;;;;4394361;32;20051;-68
2022/10/09 14:55:08;;;;;;;7.35;2.90;;;;;;;;;;4397792;32;20104;-69
2022/10/09 14:57:34;;;;;;;8.55;2.40;;;;;;;;;;4401609;32;20404;-69
2022/10/09 14:59:59;;;;;;;5.62;2.75;;;;;;;;;;4400839;32;20116;-69
2022/10/09 15:02:24;;;;;;;7.87;2.55;;;;;;;;;;4401218;32;20054;-68
2022/10/09 15:04:49;;;;;;;6.62;2.20;;;;;;;;;;4404965;32;20126;-69
2022/10/09 15:07:14;;;;;;;15.23;3.42;;;;;;;;;;4403375;32;20068;-69
2022/10/09 15:09:40;;;;;;;7.30;2.92;;;;;;;;;;4402842;32;20060;-69
2022/10/09 15:12:05;;;;;;;8.63;2.62;;;;;;;;;;4405331;32;20507;-69
2022/10/09 15:14:30;;;;;;;8.13;2.62;;;;;;;;;;4402134;32;20061;-69
2022/10/09 15:16:55;;;;;;;7.68;2.25;;;;;;;;;;4400809;32;20022;-69
2022/10/09 15:19:20;;;;;;;4.78;2.70;;;;;;;;;;4402261;32;20116;-68
2022/10/09 15:21:46;;;;;;;9.65;2.67;;;;;;;;;;4403669;32;20167;-69
2022/10/09 15:24:11;;;;;;;6.00;3.10;;;;;;;;;;4403054;32;20027;-70
2022/10/09 15:26:37;;;;;;;8.95;3.55;;;;;;;;;;4405587;32;20145;-69
2022/10/09 15:29:03;;;;;;;10.63;2.97;;;;;;;;;;4403295;32;20381;-69
2022/10/09 15:31:32;;;;;;;7.60;2.87;;;;;;;;;;4405637;32;20151;-70
2022/10/09 15:34:00;;;;;;;7.40;2.25;;;;;;;;;;4406093;32;20348;-70
2022/10/09 15:36:25;;;;;;;9.20;2.45;;;;;;;;;;4393259;32;20489;-69
2022/10/09 15:38:50;;;;;;;6.45;2.90;;;;;;;;;;4404437;32;20034;-69
2022/10/09 15:41:19;;;;;;;8.82;2.67;;;;;;;;;;4405861;32;20356;-70
2022/10/09 15:43:45;;;;;;;9.02;2.20;;;;;;;;;;4405540;32;20060;-70
2022/10/09 15:46:10;;;;;;;6.93;2.60;;;;;;;;;;4404527;32;20029;-70
2022/10/09 15:48:35;;;;;;;6.47;2.67;;;;;;;;;;4405074;32;20519;-70
2022/10/09 15:51:05;;;;;;;6.62;2.40;;;;;;;;;;4404585;32;20287;-70
2022/10/09 15:53:31;;;;;;;8.27;3.10;;;;;;;;;;4403590;32;20496;-70
2022/10/09 15:55:56;;;;;;;6.55;2.40;;;;;;;;;;4404218;32;20026;-70
2022/10/09 15:58:21;;;;;;;11.85;3.20;;;;;;;;;;4406465;32;20408;-70
2022/10/09 16:00:47;;;;;;;5.82;2.40;;;;;;;;;;4405119;32;20069;-70
2022/10/09 16:03:13;;;;;;;6.18;3.08;;;;;;;;;;4404704;32;20053;-68